Time;durP1;ratioP1;P1;durP2;ratioP2;P2;SDS_P1;SDS_P2;PMS_P1;PMS_P2;Temp;Humidity;BMP_temperature;BMP_pressure;BME280_temperature;BME280_humidity;BME280_pressure;Samples;Min_cycle;Max_cycle;Signal;HPM_P1;HPM_P2
2021/09/19 00:02:02;;;;;;;3.40;1.20;;;;;;;;;;5073414;28;20028;-61
2021/09/19 00:04:28;;;;;;;2.93;1.40;;;;;;;;;;5072629;28;20028;-61
2021/09/19 00:06:55;;;;;;;4.13;1.37;;;;;;;;;;5073251;28;20029;-61
2021/09/19 00:09:22;;;;;;;5.60;1.50;;;;;;;;;;5068654;28;20035;-62
2021/09/19 00:11:49;;;;;;;2.23;1.00;;;;;;;;;;5066975;28;20032;-62
2021/09/19 00:14:16;;;;;;;3.20;1.37;;;;;;;;;;5067362;28;20036;-60
2021/09/19 00:16:43;;;;;;;3.30;1.10;;;;;;;;;;5066584;28;20469;-60
2021/09/19 00:19:11;;;;;;;2.10;1.10;;;;;;;;;;5071298;28;20042;-60
2021/09/19 00:21:38;;;;;;;2.43;1.50;;;;;;;;;;5072807;28;20468;-60
2021/09/19 00:24:05;;;;;;;1.40;0.97;;;;;;;;;;5072771;28;20379;-60
2021/09/19 00:26:32;;;;;;;1.73;1.00;;;;;;;;;;5072426;28;20035;-60
2021/09/19 00:28:58;;;;;;;1.73;0.90;;;;;;;;;;5072255;28;20043;-60
2021/09/19 00:31:25;;;;;;;2.27;1.10;;;;;;;;;;5069101;28;20025;-60
2021/09/19 00:34:07;;;;;;;2.97;1.20;;;;;;;;;;5067309;28;20475;-60
2021/09/19 00:36:34;;;;;;;1.43;0.80;;;;;;;;;;5049226;28;20048;-60
2021/09/19 00:39:01;;;;;;;4.30;0.90;;;;;;;;;;5066838;28;20518;-60
2021/09/19 00:41:28;;;;;;;1.90;1.10;;;;;;;;;;5070410;28;20025;-60
2021/09/19 00:43:55;;;;;;;2.07;0.77;;;;;;;;;;5072610;28;20024;-60
2021/09/19 00:46:21;;;;;;;3.57;1.00;;;;;;;;;;5072747;28;20031;-61
2021/09/19 00:48:48;;;;;;;2.37;1.00;;;;;;;;;;5072562;28;20420;-61
2021/09/19 00:51:15;;;;;;;3.47;1.30;;;;;;;;;;5072121;28;20031;-61
2021/09/19 00:53:42;;;;;;;2.37;1.03;;;;;;;;;;5068698;28;20112;-60
2021/09/19 00:56:08;;;;;;;2.03;1.23;;;;;;;;;;5067065;28;20074;-60
2021/09/19 00:58:35;;;;;;;1.97;1.20;;;;;;;;;;5066700;28;20021;-60
2021/09/19 01:01:03;;;;;;;3.97;1.07;;;;;;;;;;5067005;28;20399;-57
2021/09/19 01:03:30;;;;;;;2.93;1.30;;;;;;;;;;5069846;28;20028;-58
2021/09/19 01:05:57;;;;;;;1.87;1.07;;;;;;;;;;5072348;28;20473;-58
2021/09/19 01:08:24;;;;;;;2.40;0.80;;;;;;;;;;5072213;28;20086;-57
2021/09/19 01:10:51;;;;;;;2.20;0.90;;;;;;;;;;5072077;28;20028;-57
2021/09/19 01:13:18;;;;;;;2.23;1.00;;;;;;;;;;5071362;28;20024;-57
2021/09/19 01:15:45;;;;;;;3.70;1.50;;;;;;;;;;5069079;28;20375;-57
2021/09/19 01:18:14;;;;;;;1.93;1.20;;;;;;;;;;5066969;28;20066;-58
2021/09/19 01:20:40;;;;;;;1.40;0.97;;;;;;;;;;5067029;28;20027;-58
2021/09/19 01:23:11;;;;;;;1.50;0.83;;;;;;;;;;5066907;28;20097;-58
2021/09/19 01:25:39;;;;;;;1.57;0.90;;;;;;;;;;5069126;28;20074;-58
2021/09/19 01:28:06;;;;;;;2.17;1.30;;;;;;;;;;5071759;28;20032;-57
2021/09/19 01:30:34;;;;;;;5.90;3.60;;;;;;;;;;5071859;28;20024;-57
2021/09/19 01:33:01;;;;;;;4.73;1.60;;;;;;;;;;5072034;28;20111;-57
2021/09/19 01:35:28;;;;;;;2.93;1.57;;;;;;;;;;5071911;28;20090;-57
2021/09/19 01:37:58;;;;;;;4.10;1.67;;;;;;;;;;5068676;28;20024;-61
2021/09/19 01:40:28;;;;;;;4.03;1.50;;;;;;;;;;5066718;28;20379;-60
2021/09/19 01:42:55;;;;;;;4.00;1.33;;;;;;;;;;5066548;28;20025;-60
2021/09/19 01:45:23;;;;;;;2.67;1.70;;;;;;;;;;5066467;28;20044;-61
2021/09/19 01:47:51;;;;;;;2.23;1.47;;;;;;;;;;5068913;28;20035;-61
2021/09/19 01:50:20;;;;;;;2.23;1.43;;;;;;;;;;5071469;28;20144;-60
2021/09/19 01:52:47;;;;;;;4.90;1.63;;;;;;;;;;5071762;28;20032;-60
2021/09/19 01:55:14;;;;;;;2.80;1.70;;;;;;;;;;5071836;28;20029;-60
2021/09/19 01:57:41;;;;;;;3.23;1.47;;;;;;;;;;5071833;28;20032;-61
2021/09/19 02:00:08;;;;;;;2.60;1.40;;;;;;;;;;5068864;28;20017;-60
2021/09/19 02:02:35;;;;;;;3.10;1.47;;;;;;;;;;5065998;28;20103;-60
2021/09/19 02:05:03;;;;;;;2.10;1.30;;;;;;;;;;5066566;28;20039;-60
2021/09/19 02:07:30;;;;;;;3.03;1.60;;;;;;;;;;5066556;28;20379;-60
2021/09/19 02:09:57;;;;;;;2.37;1.40;;;;;;;;;;5068291;28;20476;-60
2021/09/19 02:12:24;;;;;;;3.30;1.70;;;;;;;;;;5071576;28;20032;-60
2021/09/19 02:14:51;;;;;;;3.87;1.50;;;;;;;;;;5071667;28;20035;-59
2021/09/19 02:17:17;;;;;;;2.77;1.40;;;;;;;;;;5071543;28;20100;-59
2021/09/19 02:19:44;;;;;;;2.90;1.60;;;;;;;;;;5071471;28;20016;-59
2021/09/19 02:22:12;;;;;;;2.73;1.37;;;;;;;;;;5069311;28;20094;-60
2021/09/19 02:24:39;;;;;;;2.80;1.57;;;;;;;;;;5065985;28;20055;-59
2021/09/19 02:27:06;;;;;;;3.77;1.60;;;;;;;;;;5066244;28;20036;-60
2021/09/19 02:29:33;;;;;;;3.50;1.50;;;;;;;;;;5066422;28;20043;-60
2021/09/19 02:32:00;;;;;;;4.10;1.90;;;;;;;;;;5067455;28;20020;-60
2021/09/19 02:34:27;;;;;;;4.07;1.43;;;;;;;;;;5071113;28;20511;-60
2021/09/19 02:36:54;;;;;;;3.43;1.70;;;;;;;;;;5071130;28;20111;-60
2021/09/19 02:39:21;;;;;;;3.33;1.73;;;;;;;;;;5071879;28;20577;-59
2021/09/19 02:41:48;;;;;;;5.23;1.90;;;;;;;;;;5075146;28;20027;-60
2021/09/19 02:44:15;;;;;;;4.27;2.20;;;;;;;;;;5073288;28;20073;-60
2021/09/19 02:46:42;;;;;;;4.63;2.60;;;;;;;;;;5069814;28;20035;-60
2021/09/19 02:49:09;;;;;;;4.90;2.67;;;;;;;;;;5069269;28;20028;-60
2021/09/19 02:51:36;;;;;;;5.37;3.03;;;;;;;;;;5069206;28;20017;-61
2021/09/19 02:54:03;;;;;;;5.13;3.27;;;;;;;;;;5069913;28;20558;-59
2021/09/19 02:56:30;;;;;;;8.37;4.53;;;;;;;;;;5074797;28;20376;-60
2021/09/19 02:58:57;;;;;;;6.97;4.00;;;;;;;;;;5074607;28;20530;-60
2021/09/19 03:01:24;;;;;;;5.67;4.10;;;;;;;;;;5074552;28;20166;-60
2021/09/19 03:03:51;;;;;;;5.53;3.03;;;;;;;;;;5074691;28;20047;-60
2021/09/19 03:06:24;;;;;;;4.07;2.50;;;;;;;;;;5073542;28;20380;-60
2021/09/19 03:09:00;;;;;;;6.37;3.03;;;;;;;;;;5068915;28;20024;-60
2021/09/19 03:11:27;;;;;;;7.67;3.93;;;;;;;;;;5068694;28;20028;-60
2021/09/19 03:13:53;;;;;;;7.27;3.13;;;;;;;;;;5068794;28;20085;-60
2021/09/19 03:16:21;;;;;;;5.87;3.53;;;;;;;;;;5069725;28;20044;-60
2021/09/19 03:18:47;;;;;;;5.97;3.70;;;;;;;;;;5074416;28;20048;-59
2021/09/19 03:21:14;;;;;;;7.13;3.60;;;;;;;;;;5073769;28;20028;-59
2021/09/19 03:23:41;;;;;;;8.30;4.00;;;;;;;;;;5073835;28;20025;-59
2021/09/19 03:26:08;;;;;;;11.17;3.50;;;;;;;;;;5074215;28;20487;-59
2021/09/19 03:28:35;;;;;;;6.97;3.30;;;;;;;;;;5073043;28;20491;-60
2021/09/19 03:31:01;;;;;;;5.83;3.13;;;;;;;;;;5068810;28;20118;-60
2021/09/19 03:33:28;;;;;;;4.73;2.80;;;;;;;;;;5068508;28;20035;-60
2021/09/19 03:35:55;;;;;;;7.03;3.77;;;;;;;;;;5068580;28;20035;-60
2021/09/19 03:38:22;;;;;;;4.03;2.57;;;;;;;;;;5068377;28;20077;-60
2021/09/19 03:40:48;;;;;;;3.40;2.40;;;;;;;;;;5074104;28;20044;-60
2021/09/19 03:43:15;;;;;;;6.40;2.50;;;;;;;;;;5073937;28;20036;-60
2021/09/19 03:45:42;;;;;;;3.57;1.87;;;;;;;;;;5073514;28;20031;-60
2021/09/19 03:48:09;;;;;;;3.90;2.20;;;;;;;;;;5073401;28;20020;-60
2021/09/19 03:50:37;;;;;;;3.63;2.27;;;;;;;;;;5072957;28;20021;-60
2021/09/19 03:53:04;;;;;;;4.17;2.07;;;;;;;;;;5068406;28;20021;-60
2021/09/19 03:55:31;;;;;;;8.03;2.30;;;;;;;;;;5067910;28;20466;-61
2021/09/19 03:57:59;;;;;;;4.80;1.67;;;;;;;;;;5067875;28;20111;-60
2021/09/19 04:00:26;;;;;;;2.50;1.30;;;;;;;;;;5068169;28;20048;-60
2021/09/19 04:02:53;;;;;;;3.30;1.63;;;;;;;;;;5073006;28;20489;-60
2021/09/19 04:05:20;;;;;;;4.97;1.50;;;;;;;;;;5073464;28;20017;-60
2021/09/19 04:07:46;;;;;;;4.03;2.13;;;;;;;;;;5073126;28;20379;-60
2021/09/19 04:10:13;;;;;;;2.73;1.57;;;;;;;;;;5073106;28;20078;-60
2021/09/19 04:12:41;;;;;;;4.57;1.37;;;;;;;;;;5073106;28;20036;-60
2021/09/19 04:15:08;;;;;;;5.30;1.73;;;;;;;;;;5067779;28;20041;-60
2021/09/19 04:17:35;;;;;;;3.70;1.33;;;;;;;;;;5067916;28;20028;-59
2021/09/19 04:20:02;;;;;;;3.83;1.83;;;;;;;;;;5067472;28;20033;-60
2021/09/19 04:22:28;;;;;;;2.30;1.07;;;;;;;;;;5067419;28;20028;-60
2021/09/19 04:24:55;;;;;;;1.70;0.90;;;;;;;;;;5072156;28;20048;-60
2021/09/19 04:27:22;;;;;;;3.33;1.17;;;;;;;;;;5072548;28;20480;-60
2021/09/19 04:29:49;;;;;;;2.10;1.10;;;;;;;;;;5072958;28;20020;-60
2021/09/19 04:32:16;;;;;;;2.30;1.27;;;;;;;;;;5072893;28;20162;-59
2021/09/19 04:34:42;;;;;;;4.63;0.90;;;;;;;;;;5072636;28;20062;-59
2021/09/19 04:37:13;;;;;;;1.77;1.00;;;;;;;;;;5067759;28;20384;-60
2021/09/19 04:39:41;;;;;;;3.27;1.10;;;;;;;;;;5067401;28;20036;-60
2021/09/19 04:42:08;;;;;;;2.47;1.10;;;;;;;;;;5067477;28;20020;-60
2021/09/19 04:44:35;;;;;;;2.20;0.90;;;;;;;;;;5066826;28;20021;-60
2021/09/19 04:47:01;;;;;;;2.87;0.80;;;;;;;;;;5071614;28;20402;-60
2021/09/19 04:49:28;;;;;;;3.73;1.07;;;;;;;;;;5072650;28;20024;-60
2021/09/19 04:51:55;;;;;;;2.50;1.00;;;;;;;;;;5072587;28;20100;-60
2021/09/19 04:54:22;;;;;;;3.40;1.60;;;;;;;;;;5072342;28;20044;-60
2021/09/19 04:56:49;;;;;;;25.97;3.40;;;;;;;;;;5072157;28;20025;-60
2021/09/19 04:59:15;;;;;;;1.53;0.90;;;;;;;;;;5067660;28;20052;-60
2021/09/19 05:01:42;;;;;;;2.07;1.00;;;;;;;;;;5066816;28;20047;-60
2021/09/19 05:04:09;;;;;;;4.53;1.07;;;;;;;;;;5066936;28;20554;-60
2021/09/19 05:06:36;;;;;;;2.40;1.03;;;;;;;;;;5066950;28;20028;-59
2021/09/19 05:09:03;;;;;;;1.67;0.90;;;;;;;;;;5070364;28;20024;-60
2021/09/19 05:11:29;;;;;;;3.40;1.20;;;;;;;;;;5072281;28;20459;-59
2021/09/19 05:13:56;;;;;;;5.67;1.03;;;;;;;;;;5071968;28;20036;-60
2021/09/19 05:16:23;;;;;;;1.97;0.93;;;;;;;;;;5072270;28;20100;-59
2021/09/19 05:18:50;;;;;;;2.37;0.80;;;;;;;;;;5072297;28;20074;-60
2021/09/19 05:21:16;;;;;;;4.97;1.07;;;;;;;;;;5068207;28;20455;-60
2021/09/19 05:23:43;;;;;;;2.13;0.80;;;;;;;;;;5067006;28;20025;-60
2021/09/19 05:26:10;;;;;;;3.23;0.70;;;;;;;;;;5066788;28;20425;-60
2021/09/19 05:28:37;;;;;;;3.57;1.10;;;;;;;;;;5066803;28;20025;-59
2021/09/19 05:31:03;;;;;;;1.80;1.20;;;;;;;;;;5069558;28;20025;-60
2021/09/19 05:33:30;;;;;;;3.97;0.70;;;;;;;;;;5071434;28;20017;-60
2021/09/19 05:35:57;;;;;;;4.87;1.10;;;;;;;;;;5072230;28;20024;-59
2021/09/19 05:38:24;;;;;;;2.70;1.10;;;;;;;;;;5072091;28;20029;-59
2021/09/19 05:40:51;;;;;;;2.30;1.20;;;;;;;;;;5072145;28;20024;-60
2021/09/19 05:43:18;;;;;;;1.80;0.97;;;;;;;;;;5068317;28;20425;-60
2021/09/19 05:45:45;;;;;;;7.17;1.20;;;;;;;;;;5066408;28;20028;-59
2021/09/19 05:48:11;;;;;;;2.47;1.03;;;;;;;;;;5066905;28;20024;-60
2021/09/19 05:50:38;;;;;;;4.70;1.00;;;;;;;;;;5066534;28;20155;-59
2021/09/19 05:53:05;;;;;;;2.63;1.10;;;;;;;;;;5069099;28;20085;-59
2021/09/19 05:55:32;;;;;;;2.10;0.73;;;;;;;;;;5071492;28;20040;-59
2021/09/19 05:57:58;;;;;;;1.67;1.00;;;;;;;;;;5071777;28;20086;-59
2021/09/19 06:00:25;;;;;;;1.83;1.10;;;;;;;;;;5071303;28;20029;-59
2021/09/19 06:02:52;;;;;;;5.00;1.37;;;;;;;;;;5068375;28;20371;-59
2021/09/19 06:05:19;;;;;;;1.37;1.00;;;;;;;;;;5059492;28;20021;-59
2021/09/19 06:07:46;;;;;;;1.73;1.00;;;;;;;;;;5048767;28;20033;-60
2021/09/19 06:10:13;;;;;;;8.53;1.57;;;;;;;;;;5063804;28;20042;-59
2021/09/19 06:12:39;;;;;;;2.43;1.00;;;;;;;;;;5066723;28;20087;-59
2021/09/19 06:15:07;;;;;;;1.37;0.70;;;;;;;;;;5071550;28;20043;-59
2021/09/19 06:17:33;;;;;;;2.53;1.03;;;;;;;;;;5075613;28;20025;-59
2021/09/19 06:20:01;;;;;;;1.63;0.80;;;;;;;;;;5057358;28;20056;-59
2021/09/19 06:22:27;;;;;;;4.17;1.20;;;;;;;;;;5055072;28;20021;-59
2021/09/19 06:24:54;;;;;;;1.40;0.80;;;;;;;;;;5055377;28;20052;-59
2021/09/19 06:27:21;;;;;;;2.30;0.83;;;;;;;;;;5053134;28;20514;-59
2021/09/19 06:29:48;;;;;;;5.43;0.83;;;;;;;;;;5050147;28;20838;-59
2021/09/19 06:32:15;;;;;;;1.90;1.10;;;;;;;;;;5050026;28;20075;-60
2021/09/19 06:34:42;;;;;;;4.37;1.00;;;;;;;;;;5065406;28;20119;-59
2021/09/19 06:37:09;;;;;;;3.40;1.20;;;;;;;;;;5071033;28;20364;-59
2021/09/19 06:39:35;;;;;;;2.10;1.00;;;;;;;;;;5074671;28;20033;-59
2021/09/19 06:42:02;;;;;;;5.17;1.30;;;;;;;;;;5074741;28;20025;-59
2021/09/19 06:44:29;;;;;;;1.33;0.90;;;;;;;;;;5075211;28;20379;-59
2021/09/19 06:46:56;;;;;;;6.27;1.57;;;;;;;;;;5075010;28;20048;-59
2021/09/19 06:49:24;;;;;;;3.57;0.93;;;;;;;;;;5073287;28;20427;-60
2021/09/19 06:51:51;;;;;;;6.70;1.90;;;;;;;;;;5069953;28;20064;-59
2021/09/19 06:54:18;;;;;;;4.27;1.13;;;;;;;;;;5069087;28;20040;-59
2021/09/19 06:56:47;;;;;;;1.87;1.10;;;;;;;;;;5069311;28;20124;-59
2021/09/19 06:59:13;;;;;;;3.40;0.83;;;;;;;;;;5070179;28;20044;-59
2021/09/19 07:01:40;;;;;;;2.57;0.80;;;;;;;;;;5074702;28;20021;-59
2021/09/19 07:04:07;;;;;;;7.43;1.60;;;;;;;;;;5074834;28;20021;-59
2021/09/19 07:06:34;;;;;;;1.00;0.73;;;;;;;;;;5074204;28;20021;-59
2021/09/19 07:09:02;;;;;;;2.20;0.90;;;;;;;;;;5074742;28;20048;-59
2021/09/19 07:11:28;;;;;;;4.57;0.83;;;;;;;;;;5072879;28;20036;-59
2021/09/19 07:13:55;;;;;;;9.50;0.90;;;;;;;;;;5069242;28;20037;-59
2021/09/19 07:16:22;;;;;;;2.70;1.00;;;;;;;;;;5069449;28;20837;-59
2021/09/19 07:18:49;;;;;;;2.83;1.23;;;;;;;;;;5069309;28;20048;-59
2021/09/19 07:21:16;;;;;;;1.93;0.90;;;;;;;;;;5069335;28;20083;-59
2021/09/19 07:23:43;;;;;;;5.57;0.90;;;;;;;;;;5074059;28;20032;-59
2021/09/19 07:26:10;;;;;;;3.07;0.90;;;;;;;;;;5073491;28;20032;-59
2021/09/19 07:28:37;;;;;;;5.27;0.90;;;;;;;;;;5073271;28;20024;-59
2021/09/19 07:31:04;;;;;;;2.47;1.20;;;;;;;;;;5074316;28;20021;-59
2021/09/19 07:33:31;;;;;;;3.70;0.87;;;;;;;;;;5073690;28;20078;-59
2021/09/19 07:35:57;;;;;;;2.77;0.70;;;;;;;;;;5069021;28;20102;-59
2021/09/19 07:38:24;;;;;;;1.53;0.80;;;;;;;;;;5068960;28;20023;-60
2021/09/19 07:40:51;;;;;;;1.33;0.93;;;;;;;;;;5068608;28;20495;-60
2021/09/19 07:43:18;;;;;;;3.87;1.20;;;;;;;;;;5068498;28;20349;-59
2021/09/19 07:45:45;;;;;;;5.87;1.70;;;;;;;;;;5073382;28;20498;-59
2021/09/19 07:48:14;;;;;;;3.73;0.90;;;;;;;;;;5073649;28;20031;-59
2021/09/19 07:50:41;;;;;;;4.07;0.77;;;;;;;;;;5073609;28;20024;-59
2021/09/19 07:53:08;;;;;;;1.40;0.80;;;;;;;;;;5073388;28;20028;-59
2021/09/19 07:55:35;;;;;;;4.60;0.90;;;;;;;;;;5073448;28;20078;-59
2021/09/19 07:58:02;;;;;;;4.90;0.97;;;;;;;;;;5068394;28;20364;-59
2021/09/19 08:00:29;;;;;;;2.17;1.10;;;;;;;;;;5068037;28;20024;-59
2021/09/19 08:02:56;;;;;;;2.13;1.00;;;;;;;;;;5068272;28;20044;-59
2021/09/19 08:05:23;;;;;;;1.50;0.93;;;;;;;;;;5068291;28;20373;-59
2021/09/19 08:07:50;;;;;;;4.70;1.10;;;;;;;;;;5072738;28;20438;-59
2021/09/19 08:10:18;;;;;;;1.47;0.93;;;;;;;;;;5073378;28;20361;-59
2021/09/19 08:12:48;;;;;;;11.10;1.30;;;;;;;;;;5073390;28;20028;-59
2021/09/19 08:15:16;;;;;;;4.17;0.97;;;;;;;;;;5072813;28;20398;-59
2021/09/19 08:17:43;;;;;;;6.40;0.90;;;;;;;;;;5073249;28;20052;-59
2021/09/19 08:20:11;;;;;;;5.53;1.20;;;;;;;;;;5067861;28;20020;-59
2021/09/19 08:22:38;;;;;;;3.90;1.07;;;;;;;;;;5067731;28;20036;-59
2021/09/19 08:25:06;;;;;;;1.70;0.97;;;;;;;;;;5068195;28;20402;-59
2021/09/19 08:27:34;;;;;;;2.23;0.90;;;;;;;;;;5067493;28;20085;-59
2021/09/19 08:30:02;;;;;;;4.00;1.13;;;;;;;;;;5072468;28;20077;-59
2021/09/19 08:32:28;;;;;;;4.03;0.97;;;;;;;;;;5072788;28;20110;-59
2021/09/19 08:34:55;;;;;;;4.40;1.47;;;;;;;;;;5072684;28;20039;-59
2021/09/19 08:37:22;;;;;;;8.07;1.40;;;;;;;;;;5071713;28;20028;-59
2021/09/19 08:39:49;;;;;;;3.30;0.90;;;;;;;;;;5072809;28;20025;-59
2021/09/19 08:42:16;;;;;;;3.83;1.13;;;;;;;;;;5067787;28;20025;-59
2021/09/19 08:44:42;;;;;;;3.13;1.00;;;;;;;;;;5067723;28;20078;-59
2021/09/19 08:47:12;;;;;;;4.33;0.90;;;;;;;;;;5067354;28;20059;-59
2021/09/19 08:49:39;;;;;;;5.40;1.20;;;;;;;;;;5067026;28;20054;-60
2021/09/19 08:52:06;;;;;;;2.47;1.10;;;;;;;;;;5071720;28;20075;-59
2021/09/19 08:54:32;;;;;;;1.70;0.90;;;;;;;;;;5072227;28;20071;-60
2021/09/19 08:56:59;;;;;;;3.50;1.20;;;;;;;;;;5072662;28;20032;-59
2021/09/19 08:59:42;;;;;;;3.00;1.10;;;;;;;;;;5072357;28;20028;-59
2021/09/19 09:02:08;;;;;;;5.07;1.20;;;;;;;;;;5052574;28;20353;-59
2021/09/19 09:04:39;;;;;;;3.03;0.80;;;;;;;;;;5047273;28;20032;-59
2021/09/19 09:07:06;;;;;;;2.23;1.17;;;;;;;;;;5047285;28;20029;-59
2021/09/19 09:09:33;;;;;;;2.47;1.37;;;;;;;;;;5047382;28;20025;-59
2021/09/19 09:12:04;;;;;;;1.93;0.90;;;;;;;;;;5053915;28;20074;-59
2021/09/19 09:14:38;;;;;;;1.93;0.80;;;;;;;;;;5071342;28;20024;-59
2021/09/19 09:17:16;;;;;;;1.43;0.80;;;;;;;;;;5072552;28;20047;-59
2021/09/19 09:19:44;;;;;;;3.30;0.90;;;;;;;;;;5072094;28;20601;-60
2021/09/19 09:22:11;;;;;;;1.03;0.77;;;;;;;;;;5072316;28;20013;-59
2021/09/19 09:24:39;;;;;;;9.10;0.97;;;;;;;;;;5072164;28;20074;-59
2021/09/19 09:27:23;;;;;;;2.07;0.90;;;;;;;;;;5066149;28;20360;-60
2021/09/19 09:30:09;;;;;;;1.97;1.00;;;;;;;;;;5066567;28;20060;-59
2021/09/19 09:32:58;;;;;;;5.17;1.00;;;;;;;;;;5066935;28;20028;-59
2021/09/19 09:35:30;;;;;;;1.43;0.77;;;;;;;;;;5055885;28;20053;-59
2021/09/19 09:37:57;;;;;;;5.50;1.30;;;;;;;;;;5072154;28;20016;-59
2021/09/19 09:40:28;;;;;;;2.70;0.80;;;;;;;;;;5072218;28;20033;-59
2021/09/19 09:43:03;;;;;;;3.00;0.80;;;;;;;;;;5071230;28;20037;-59
2021/09/19 09:45:30;;;;;;;6.43;2.70;;;;;;;;;;5071744;28;20457;-59
2021/09/19 09:47:57;;;;;;;6.77;1.10;;;;;;;;;;5069473;28;20523;-59
2021/09/19 09:50:26;;;;;;;3.17;0.70;;;;;;;;;;5070393;28;20078;-59
2021/09/19 09:52:53;;;;;;;1.20;0.70;;;;;;;;;;5070758;28;20024;-59
2021/09/19 09:55:21;;;;;;;2.00;0.83;;;;;;;;;;5070859;28;20025;-59
2021/09/19 09:57:57;;;;;;;2.87;0.97;;;;;;;;;;5072316;28;20472;-59
2021/09/19 10:00:24;;;;;;;3.73;1.57;;;;;;;;;;5076038;28;20028;-60
2021/09/19 10:02:52;;;;;;;7.97;1.10;;;;;;;;;;5075220;28;20025;-59
2021/09/19 10:05:22;;;;;;;2.53;1.17;;;;;;;;;;5075652;28;20506;-60
2021/09/19 10:07:49;;;;;;;2.23;0.97;;;;;;;;;;5075819;28;20052;-60
2021/09/19 10:10:20;;;;;;;3.57;1.30;;;;;;;;;;5072509;28;20029;-59
2021/09/19 10:12:48;;;;;;;2.37;1.10;;;;;;;;;;5070382;28;20070;-59
2021/09/19 10:15:15;;;;;;;4.43;1.00;;;;;;;;;;5069908;28;20036;-59
2021/09/19 10:17:43;;;;;;;1.10;0.73;;;;;;;;;;5070404;28;20023;-59
2021/09/19 10:20:21;;;;;;;2.40;1.17;;;;;;;;;;5072311;28;20096;-60
2021/09/19 10:23:00;;;;;;;2.87;1.00;;;;;;;;;;5075180;28;20023;-59
2021/09/19 10:25:39;;;;;;;1.23;0.87;;;;;;;;;;5075662;28;20096;-59
2021/09/19 10:28:35;;;;;;;3.73;2.20;;;;;;;;;;5074954;28;20036;-58
2021/09/19 10:31:23;;;;;;;7.10;2.65;;;;;;;;;;5054348;28;20063;-59
2021/09/19 10:33:57;;;;;;;7.07;5.07;;;;;;;;;;5070156;28;20110;-59
2021/09/19 10:36:25;;;;;;;13.82;8.43;;;;;;;;;;5069837;28;20078;-59
2021/09/19 10:38:52;;;;;;;12.50;9.50;;;;;;;;;;5069635;28;20379;-59
2021/09/19 10:41:23;;;;;;;15.10;8.43;;;;;;;;;;5070120;28;20632;-59
2021/09/19 10:43:51;;;;;;;11.70;7.03;;;;;;;;;;5075007;28;20025;-59
2021/09/19 10:46:36;;;;;;;10.73;5.13;;;;;;;;;;5075065;28;20017;-59
2021/09/19 10:49:12;;;;;;;9.98;3.90;;;;;;;;;;5074568;28;20021;-59
2021/09/19 10:52:11;;;;;;;9.53;3.30;;;;;;;;;;5074724;28;20483;-59
2021/09/19 10:54:46;;;;;;;5.37;2.57;;;;;;;;;;5008101;28;20396;-59
2021/09/19 10:57:20;;;;;;;3.40;1.80;;;;;;;;;;5049549;28;20488;-59
2021/09/19 11:00:05;;;;;;;3.27;1.60;;;;;;;;;;5048719;28;20112;-59
2021/09/19 11:02:32;;;;;;;4.75;1.75;;;;;;;;;;5049497;28;20472;-59
2021/09/19 11:05:17;;;;;;;2.60;1.30;;;;;;;;;;5052336;28;20060;-59
2021/09/19 11:07:43;;;;;;;3.20;1.38;;;;;;;;;;5071958;28;20054;-59
2021/09/19 11:10:10;;;;;;;3.10;1.27;;;;;;;;;;5074659;28;20035;-59
2021/09/19 11:12:44;;;;;;;3.63;1.40;;;;;;;;;;5074501;28;20028;-59
2021/09/19 11:15:14;;;;;;;4.37;1.37;;;;;;;;;;5073871;28;20496;-59
2021/09/19 11:17:49;;;;;;;6.77;1.70;;;;;;;;;;5070023;28;20032;-59
2021/09/19 11:20:21;;;;;;;;;;;;;;;;;;5069258;28;20040;-59
2021/09/19 11:22:49;;;;;;;1.87;0.80;;;;;;;;;;5049059;28;20003;-59
2021/09/19 11:25:17;;;;;;;2.97;1.37;;;;;;;;;;5056368;28;20031;-59
2021/09/19 11:27:45;;;;;;;5.70;1.70;;;;;;;;;;5072518;28;20041;-59
2021/09/19 11:30:14;;;;;;;2.43;1.30;;;;;;;;;;5074044;28;20082;-59
2021/09/19 11:32:41;;;;;;;4.97;1.60;;;;;;;;;;5074135;28;20033;-60
2021/09/19 11:35:08;;;;;;;4.70;1.20;;;;;;;;;;5074174;28;20047;-59
2021/09/19 11:37:35;;;;;;;5.60;1.20;;;;;;;;;;5073971;28;20020;-59
2021/09/19 11:40:05;;;;;;;2.77;1.40;;;;;;;;;;5069569;28;20029;-60
2021/09/19 11:42:33;;;;;;;4.67;1.60;;;;;;;;;;5067914;28;20036;-59
2021/09/19 11:45:00;;;;;;;3.53;1.30;;;;;;;;;;5068310;28;20476;-59
2021/09/19 11:47:27;;;;;;;3.63;1.30;;;;;;;;;;5068267;28;20026;-59
2021/09/19 11:49:54;;;;;;;3.97;1.40;;;;;;;;;;5072481;28;20016;-59
2021/09/19 11:52:22;;;;;;;4.60;1.20;;;;;;;;;;5073645;28;20170;-59
2021/09/19 11:54:49;;;;;;;3.67;1.23;;;;;;;;;;5073700;28;20547;-56
2021/09/19 11:57:16;;;;;;;2.60;1.23;;;;;;;;;;5073178;28;20106;-57
2021/09/19 11:59:47;;;;;;;6.23;1.30;;;;;;;;;;5073115;28;20475;-56
2021/09/19 12:02:15;;;;;;;2.00;1.20;;;;;;;;;;5068602;28;20051;-57
2021/09/19 12:04:43;;;;;;;3.83;1.37;;;;;;;;;;5068219;28;20028;-56
2021/09/19 12:07:14;;;;;;;3.67;1.47;;;;;;;;;;5068316;28;20412;-57
2021/09/19 12:09:49;;;;;;;2.57;1.50;;;;;;;;;;5067828;28;20052;-56
2021/09/19 12:12:17;;;;;;;4.40;1.48;;;;;;;;;;5072233;28;20025;-56
2021/09/19 12:14:47;;;;;;;3.13;1.20;;;;;;;;;;5072900;28;20037;-57
2021/09/19 12:17:14;;;;;;;7.13;1.53;;;;;;;;;;5073395;28;20048;-56
2021/09/19 12:19:42;;;;;;;3.90;1.70;;;;;;;;;;5072992;28;20040;-56
2021/09/19 12:22:10;;;;;;;11.47;1.97;;;;;;;;;;5072935;28;20449;-56
2021/09/19 12:24:38;;;;;;;5.83;2.03;;;;;;;;;;5068232;28;20100;-56
2021/09/19 12:27:12;;;;;;;4.90;1.70;;;;;;;;;;5067781;28;20036;-56
2021/09/19 12:29:39;;;;;;;5.73;1.70;;;;;;;;;;5067761;28;20103;-57
2021/09/19 12:32:09;;;;;;;4.23;1.90;;;;;;;;;;5067540;28;20136;-57
2021/09/19 12:34:36;;;;;;;5.80;2.00;;;;;;;;;;5071697;28;20032;-57
2021/09/19 12:37:02;;;;;;;4.10;1.30;;;;;;;;;;5072431;28;20528;-56
2021/09/19 12:39:34;;;;;;;5.53;1.80;;;;;;;;;;5072828;28;20020;-56
2021/09/19 12:42:02;;;;;;;5.73;1.50;;;;;;;;;;5072842;28;20061;-56
2021/09/19 12:44:31;;;;;;;5.53;1.33;;;;;;;;;;5072576;28;20024;-57
2021/09/19 12:46:59;;;;;;;6.40;1.90;;;;;;;;;;5067617;28;20116;-56
2021/09/19 12:49:30;;;;;;;3.13;1.53;;;;;;;;;;5067190;28;20029;-56
2021/09/19 12:52:04;;;;;;;4.07;1.97;;;;;;;;;;5067395;28;20031;-56
2021/09/19 12:54:31;;;;;;;5.30;1.65;;;;;;;;;;5067389;28;20442;-56
2021/09/19 12:56:58;;;;;;;3.60;1.70;;;;;;;;;;5071581;28;20059;-56
2021/09/19 12:59:25;;;;;;;2.33;1.20;;;;;;;;;;5072494;28;20024;-56
2021/09/19 13:01:52;;;;;;;3.33;1.57;;;;;;;;;;5072624;28;20111;-56
2021/09/19 13:04:18;;;;;;;2.80;1.60;;;;;;;;;;5072201;28;20086;-56
2021/09/19 13:06:46;;;;;;;4.00;1.70;;;;;;;;;;5072467;28;20029;-56
2021/09/19 13:09:13;;;;;;;2.80;1.50;;;;;;;;;;5066625;28;20062;-57
2021/09/19 13:11:40;;;;;;;2.57;1.47;;;;;;;;;;5067181;28;20021;-57
2021/09/19 13:14:07;;;;;;;2.37;1.30;;;;;;;;;;5067129;28;20029;-57
2021/09/19 13:16:34;;;;;;;3.43;1.70;;;;;;;;;;5067184;28;20025;-57
2021/09/19 13:19:01;;;;;;;8.73;1.40;;;;;;;;;;5070805;28;20025;-56
2021/09/19 13:21:28;;;;;;;3.00;1.43;;;;;;;;;;5071855;28;20033;-56
2021/09/19 13:23:55;;;;;;;2.13;1.40;;;;;;;;;;5071637;28;20052;-56
2021/09/19 13:26:22;;;;;;;9.57;1.60;;;;;;;;;;5071962;28;20024;-56
2021/09/19 13:28:49;;;;;;;2.80;1.97;;;;;;;;;;5072268;28;20024;-56
2021/09/19 13:31:15;;;;;;;3.30;1.83;;;;;;;;;;5067458;28;20484;-56
2021/09/19 13:33:42;;;;;;;3.27;1.73;;;;;;;;;;5066618;28;20033;-56
2021/09/19 13:36:09;;;;;;;2.47;1.47;;;;;;;;;;5067001;28;20060;-57
2021/09/19 13:38:36;;;;;;;3.63;1.20;;;;;;;;;;5066862;28;20028;-56
2021/09/19 13:41:03;;;;;;;4.30;1.67;;;;;;;;;;5070920;28;20472;-56
2021/09/19 13:43:30;;;;;;;2.50;1.40;;;;;;;;;;5071909;28;20345;-56
2021/09/19 13:45:58;;;;;;;5.10;1.70;;;;;;;;;;5071926;28;20035;-57
2021/09/19 13:48:25;;;;;;;2.17;1.30;;;;;;;;;;5071842;28;20040;-56
2021/09/19 13:50:52;;;;;;;3.30;1.13;;;;;;;;;;5071575;28;20471;-57
2021/09/19 13:53:19;;;;;;;2.20;1.33;;;;;;;;;;5067721;28;20024;-57
2021/09/19 13:55:45;;;;;;;2.83;1.30;;;;;;;;;;5066578;28;20040;-57
2021/09/19 13:58:13;;;;;;;2.47;1.27;;;;;;;;;;5066782;28;20060;-57
2021/09/19 14:00:40;;;;;;;2.90;1.30;;;;;;;;;;5066668;28;20028;-56
2021/09/19 14:03:07;;;;;;;6.70;1.37;;;;;;;;;;5070298;28;20028;-57
2021/09/19 14:05:35;;;;;;;2.93;1.40;;;;;;;;;;5071565;28;20035;-57
2021/09/19 14:08:02;;;;;;;1.80;1.20;;;;;;;;;;5071423;28;20036;-57
2021/09/19 14:10:29;;;;;;;2.73;1.40;;;;;;;;;;5071630;28;20020;-57
2021/09/19 14:12:55;;;;;;;2.23;1.43;;;;;;;;;;5071937;28;20383;-57
2021/09/19 14:15:22;;;;;;;3.53;1.60;;;;;;;;;;5067783;28;20373;-57
2021/09/19 14:17:49;;;;;;;2.07;1.27;;;;;;;;;;5066572;28;20435;-57
2021/09/19 14:20:15;;;;;;;4.13;1.60;;;;;;;;;;5066195;28;20128;-57
2021/09/19 14:22:42;;;;;;;2.63;1.60;;;;;;;;;;5066152;28;20036;-58
2021/09/19 14:25:10;;;;;;;2.83;1.43;;;;;;;;;;5069523;28;20139;-57
2021/09/19 14:27:37;;;;;;;5.87;1.97;;;;;;;;;;5071589;28;20024;-57
2021/09/19 14:30:08;;;;;;;3.77;1.90;;;;;;;;;;5071527;28;20025;-57
2021/09/19 14:32:34;;;;;;;4.67;1.90;;;;;;;;;;5071173;28;20356;-57
2021/09/19 14:35:01;;;;;;;3.50;1.80;;;;;;;;;;5073053;28;20044;-57
2021/09/19 14:37:28;;;;;;;3.83;2.57;;;;;;;;;;5071189;28;20030;-57
2021/09/19 14:39:55;;;;;;;3.40;1.80;;;;;;;;;;5069903;28;20380;-57
2021/09/19 14:42:21;;;;;;;5.73;2.27;;;;;;;;;;5069731;28;20379;-57
2021/09/19 14:44:48;;;;;;;4.57;2.30;;;;;;;;;;5069936;28;20452;-57
2021/09/19 14:47:15;;;;;;;3.20;2.27;;;;;;;;;;5072570;28;20025;-57
2021/09/19 14:49:42;;;;;;;4.13;2.20;;;;;;;;;;5075553;28;20021;-57